Time;durP1;ratioP1;P1;durP2;ratioP2;P2;SDS_P1;SDS_P2;PMS_P1;PMS_P2;Temp;Humidity;BMP_temperature;BMP_pressure;BME280_temperature;BME280_humidity;BME280_pressure;Samples;Min_cycle;Max_cycle;Signal;HPM_P1;HPM_P2
2022/04/28 00:01:31;;;;;;;14.28;6.90;;;;;;;4.41;99.01;100721.67;1705016;84;21633;-72
2022/04/28 00:03:59;;;;;;;22.10;7.62;;;;;;;4.38;99.27;100723.86;1704997;84;21089;-72
2022/04/28 00:06:26;;;;;;;16.37;7.70;;;;;;;4.36;99.72;100726.90;1704853;84;21022;-71
2022/04/28 00:08:53;;;;;;;16.65;7.58;;;;;;;4.35;100.00;100733.00;1713517;83;21700;-70
2022/04/28 00:11:20;;;;;;;16.07;7.08;;;;;;;4.34;100.00;100726.03;1718443;83;21261;-70
2022/04/28 00:13:49;;;;;;;16.25;7.53;;;;;;;4.32;100.00;100734.73;1718610;83;22158;-70
2022/04/28 00:16:17;;;;;;;17.73;7.10;;;;;;;4.28;100.00;100733.89;1718445;83;21604;-70
2022/04/28 00:18:45;;;;;;;15.68;7.47;;;;;;;4.26;100.00;100726.50;1718578;83;21057;-71
2022/04/28 00:21:12;;;;;;;12.55;6.58;;;;;;;4.24;100.00;100728.23;1718669;83;22234;-71
2022/04/28 00:23:39;;;;;;;16.70;7.03;;;;;;;4.23;100.00;100730.39;1718527;83;21546;-71
2022/04/28 00:26:06;;;;;;;18.32;7.47;;;;;;;4.23;100.00;100731.70;1718284;83;21131;-70
2022/04/28 00:28:34;;;;;;;14.53;6.55;;;;;;;4.22;100.00;100735.19;1718700;83;21048;-72
2022/04/28 00:31:00;;;;;;;14.38;6.78;;;;;;;4.20;100.00;100732.57;1723178;82;21021;-70
2022/04/28 00:33:28;;;;;;;13.13;6.78;;;;;;;4.23;100.00;100735.61;1748324;82;21037;-70
2022/04/28 00:35:56;;;;;;;14.87;6.55;;;;;;;4.23;100.00;100734.75;1748235;82;21159;-70
2022/04/28 00:38:25;;;;;;;21.00;8.83;;;;;;;4.23;100.00;100734.75;1748374;82;21045;-70
2022/04/28 00:40:53;;;;;;;20.30;7.55;;;;;;;4.22;100.00;100727.37;1748386;82;21108;-71
2022/04/28 00:43:26;;;;;;;18.02;7.72;;;;;;;4.19;100.00;100728.69;1748431;82;21029;-70
2022/04/28 00:45:51;;;;;;;16.87;6.83;;;;;;;4.17;100.00;100733.03;1748689;81;21654;-71
2022/04/28 00:51:06;;;;;;;12.88;6.05;;;;;;;4.15;100.00;100730.41;1748071;82;22090;-71
2022/04/28 00:53:49;;;;;;;13.28;6.28;;;;;;;4.14;100.00;100735.62;1720960;82;21093;-71
2022/04/28 00:56:16;;;;;;;14.35;6.42;;;;;;;4.14;100.00;100738.23;1748138;82;21069;-71
2022/04/28 00:58:44;;;;;;;15.05;6.60;;;;;;;4.12;100.00;100742.60;1748216;82;21045;-71
2022/04/28 01:01:10;;;;;;;13.03;6.78;;;;;;;4.09;100.00;100738.23;1748244;82;21789;-71
2022/04/28 01:03:38;;;;;;;13.38;6.92;;;;;;;4.08;100.00;100741.72;1748232;82;21022;-74
2022/04/28 01:06:07;;;;;;;11.78;6.05;;;;;;;4.05;100.00;100742.14;1748254;81;21064;-70
2022/04/28 01:08:35;;;;;;;15.32;6.30;;;;;;;4.03;100.00;100745.22;1748435;81;21533;-72
2022/04/28 01:11:04;;;;;;;10.93;5.58;;;;;;;3.99;100.00;100737.38;1748266;82;21057;-71
2022/04/28 01:13:34;;;;;;;;;;;;;;;3.97;100.00;100743.02;1752273;82;21117;-69
2022/04/28 01:16:07;;;;;;;13.03;5.58;;;;;;;3.97;100.00;100740.41;1748048;82;20486;-71
2022/04/28 01:18:36;;;;;;;13.03;6.33;;;;;;;3.94;100.00;100733.91;1748751;82;21544;-71
2022/04/28 01:21:05;;;;;;;12.28;6.33;;;;;;;3.93;100.00;100730.88;1748603;82;21038;-71
2022/04/28 01:23:35;;;;;;;12.07;5.70;;;;;;;3.89;100.00;100733.05;1748604;82;21018;-70
2022/04/28 01:26:04;;;;;;;10.77;5.70;;;;;;;3.85;100.00;100735.66;1748617;82;21374;-70
2022/04/28 01:28:32;;;;;;;11.55;5.72;;;;;;;3.84;100.00;100736.50;1748533;82;21029;-71
2022/04/28 01:31:01;;;;;;;13.75;5.28;;;;;;;3.82;100.00;100730.42;1748384;82;21553;-70
2022/04/28 01:33:33;;;;;;;10.50;4.95;;;;;;;3.80;100.00;100735.66;1748556;82;20973;-71
2022/04/28 01:36:05;;;;;;;14.23;5.27;;;;;;;3.79;100.00;100729.55;1749426;82;21041;-70
2022/04/28 01:38:34;;;;;;;10.88;5.65;;;;;;;3.79;100.00;100729.55;1750396;81;21394;-70
2022/04/28 01:41:01;;;;;;;12.43;5.37;;;;;;;3.80;100.00;100733.05;1749934;82;20999;-71
2022/04/28 01:43:29;;;;;;;14.35;6.15;;;;;;;3.81;100.00;100736.52;1722687;82;20997;-71
2022/04/28 01:45:57;;;;;;;13.20;5.90;;;;;;;3.81;100.00;100732.16;1748408;82;21029;-70
2022/04/28 01:48:38;;;;;;;11.63;6.12;;;;;;;3.80;100.00;100729.14;1746302;82;21577;-72
2022/04/28 01:56:45;;;;;;;11.40;5.70;;;;;;;3.76;100.00;100731.30;1747528;82;21596;-71
2022/04/28 01:59:32;;;;;;;14.40;6.00;;;;;;;3.73;100.00;100728.27;1748209;82;21302;-70
2022/04/28 02:02:16;;;;;;;11.33;5.62;;;;;;;3.72;100.00;100723.04;1748500;82;21092;-70
2022/04/28 02:04:45;;;;;;;11.55;6.08;;;;;;;3.73;100.00;100725.66;1748149;82;21010;-70
2022/04/28 02:07:17;;;;;;;12.07;5.95;;;;;;;3.74;100.00;100725.22;1748531;82;21862;-70
2022/04/28 02:09:45;;;;;;;7.83;4.87;;;;;;;3.78;100.00;100720.45;1737404;81;21038;-71
2022/04/28 02:12:13;;;;;;;11.05;6.00;;;;;;;3.82;100.00;100726.11;1734203;82;21654;-70
2022/04/28 02:15:00;;;;;;;10.28;5.22;;;;;;;3.89;100.00;100721.33;1734208;82;21030;-71
2022/04/28 02:17:36;;;;;;;12.58;5.72;;;;;;;3.94;100.00;100720.88;1734172;82;21042;-69
2022/04/28 02:20:05;;;;;;;10.63;5.05;;;;;;;3.99;100.00;100723.04;1734005;82;20995;-70
2022/04/28 02:22:33;;;;;;;10.28;4.78;;;;;;;4.04;100.00;100726.08;1713882;82;21066;-72
2022/04/28 02:25:05;;;;;;;10.20;5.55;;;;;;;4.07;100.00;100726.07;1734301;82;21038;-71
2022/04/28 02:27:32;;;;;;;9.43;5.10;;;;;;;4.11;100.00;100730.42;1734815;82;21046;-70
2022/04/28 02:29:58;;;;;;;14.60;4.97;;;;;;;4.13;100.00;100726.08;1734506;82;21146;-73
2022/04/28 02:32:25;;;;;;;8.35;4.70;;;;;;;4.26;100.00;100729.11;1734580;82;21042;-71
2022/04/28 02:34:53;;;;;;;12.20;4.65;;;;;;;4.29;100.00;100733.00;1734458;82;21426;-71
2022/04/28 02:37:24;;;;;;;9.45;5.08;;;;;;;4.33;100.00;100739.95;1734825;82;21034;-70
2022/04/28 02:39:52;;;;;;;8.93;5.10;;;;;;;4.34;100.00;100736.46;1736201;82;20998;-71
2022/04/28 02:42:20;;;;;;;9.75;4.55;;;;;;;4.36;100.00;100741.24;1735313;82;23306;-70
2022/04/28 02:44:49;;;;;;;8.00;4.40;;;;;;;4.39;100.00;100742.97;1735591;82;21061;-70
2022/04/28 02:47:18;;;;;;;8.00;4.33;;;;;;;4.44;100.00;100738.64;1734956;82;21086;-71
2022/04/28 02:49:46;;;;;;;7.17;4.03;;;;;;;4.49;100.00;100736.02;1714426;82;21113;-71
2022/04/28 02:52:13;;;;;;;5.35;3.47;;;;;;;4.55;100.00;100735.55;1734613;82;21554;-72
2022/04/28 02:54:42;;;;;;;7.60;3.90;;;;;;;4.64;100.00;100737.27;1734585;82;21011;-70
2022/04/28 02:57:13;;;;;;;6.53;3.80;;;;;;;4.74;100.00;100738.98;1735229;82;21050;-71
2022/04/28 02:59:42;;;;;;;6.20;3.52;;;;;;;4.86;100.00;100737.21;1735411;82;21018;-70
2022/04/28 03:02:12;;;;;;;9.10;3.67;;;;;;;4.97;100.00;100738.00;1734853;82;21041;-72
2022/04/28 03:04:41;;;;;;;6.05;3.90;;;;;;;5.06;100.00;100735.35;1735257;82;21138;-71
2022/04/28 03:12:48;;;;;;;7.05;3.17;;;;;;;5.38;100.00;100744.35;1735273;82;21022;-70
2022/04/28 03:15:18;;;;;;;6.03;3.58;;;;;;;5.60;100.00;100747.67;1733274;82;21077;-70
2022/04/28 03:17:45;;;;;;;5.47;3.50;;;;;;;6.02;100.00;100747.39;1735309;82;21058;-71
2022/04/28 03:20:13;;;;;;;7.17;3.42;;;;;;;6.51;100.00;100741.27;1735344;82;21246;-70
2022/04/28 03:22:43;;;;;;;5.17;3.30;;;;;;;6.96;100.00;100747.75;1735415;82;21511;-72
2022/04/28 03:25:12;;;;;;;5.60;3.27;;;;;;;7.27;100.00;100751.70;1735472;82;21575;-70
2022/04/28 03:27:39;;;;;;;5.53;3.45;;;;;;;7.70;100.00;100752.37;1735620;82;20995;-70
2022/04/28 03:30:11;;;;;;;6.40;3.67;;;;;;;8.07;100.00;100758.34;1735613;82;21030;-72
2022/04/28 03:32:51;;;;;;;5.83;3.20;;;;;;;8.22;98.01;100762.48;1706909;82;20993;-72
2022/04/28 03:35:19;;;;;;;5.90;2.83;;;;;;;8.16;96.94;100766.52;1706071;84;21047;-72
2022/04/28 03:37:48;;;;;;;6.60;3.58;;;;;;;8.07;96.44;100768.84;1706053;84;21056;-71
2022/04/28 03:40:19;;;;;;;7.65;3.72;;;;;;;8.04;96.26;100773.29;1705362;84;21033;-71
2022/04/28 03:42:47;;;;;;;9.35;3.75;;;;;;;7.95;96.36;100775.61;1706539;84;21073;-70
2022/04/28 03:45:16;;;;;;;5.15;3.00;;;;;;;7.90;96.40;100770.89;1706244;84;21336;-71
2022/04/28 03:47:45;;;;;;;6.15;3.33;;;;;;;7.83;96.48;100774.05;1705334;84;21014;-70
2022/04/28 03:50:14;;;;;;;6.22;3.98;;;;;;;7.80;96.15;100771.48;1706002;84;21085;-71
2022/04/28 03:52:41;;;;;;;5.65;3.65;;;;;;;7.77;96.04;100768.44;1685887;84;21007;-72
2022/04/28 03:55:10;;;;;;;5.72;3.40;;;;;;;7.78;96.03;100767.56;1706311;84;21062;-71
2022/04/28 03:57:38;;;;;;;6.28;3.15;;;;;;;7.82;96.33;100767.50;1718765;82;21444;-71
2022/04/28 04:00:07;;;;;;;6.03;3.25;;;;;;;7.99;96.75;100776.84;1735502;82;21538;-70
2022/04/28 04:02:35;;;;;;;6.78;3.27;;;;;;;8.10;96.38;100784.55;1735725;82;21479;-71
2022/04/28 04:05:05;;;;;;;4.85;3.17;;;;;;;8.19;95.95;100786.16;1735606;82;21127;-71
2022/04/28 04:07:38;;;;;;;6.42;3.40;;;;;;;8.31;95.79;100787.71;1735879;82;21045;-71
2022/04/28 04:10:09;;;;;;;4.35;3.00;;;;;;;8.41;95.56;100786.67;1735394;81;21804;-71
2022/04/28 04:12:40;;;;;;;5.95;3.25;;;;;;;8.71;95.34;100785.25;1735473;82;21007;-70
2022/04/28 04:15:16;;;;;;;9.98;3.65;;;;;;;9.14;93.71;100788.80;1735438;82;21035;-69
2022/04/28 04:18:01;;;;;;;6.87;3.52;;;;;;;9.28;91.94;100792.01;1734127;82;21066;-71
2022/04/28 04:20:34;;;;;;;7.95;3.33;;;;;;;9.38;90.98;100794.84;1733379;82;21062;-70
2022/04/28 04:23:01;;;;;;;6.22;2.90;;;;;;;9.77;90.56;100798.80;1734627;81;21126;-71
2022/04/28 04:25:29;;;;;;;5.05;2.87;;;;;;;10.11;88.12;100803.28;1734623;82;21042;-71
2022/04/28 04:27:58;;;;;;;4.05;2.83;;;;;;;10.36;86.11;100803.56;1734204;82;21074;-71
2022/04/28 04:33:36;;;;;;;3.67;2.50;;;;;;;11.30;80.40;100802.34;1732358;82;21014;-72
2022/04/28 04:36:06;;;;;;;4.62;2.70;;;;;;;11.53;77.41;100805.14;1734171;82;21235;-71
2022/04/28 04:38:33;;;;;;;6.05;2.60;;;;;;;11.78;76.44;100808.80;1734879;82;21037;-71
2022/04/28 04:41:01;;;;;;;5.03;2.45;;;;;;;11.96;74.63;100810.45;1734724;82;21041;-73
2022/04/28 04:43:29;;;;;;;4.60;2.37;;;;;;;12.47;72.71;100813.18;1734500;82;21506;-72
2022/04/28 04:45:55;;;;;;;4.47;2.20;;;;;;;13.22;69.87;100812.70;1734137;82;21018;-72
2022/04/28 04:48:25;;;;;;;4.15;2.05;;;;;;;14.04;65.76;100811.78;1673757;82;21033;-71
2022/04/28 04:50:55;;;;;;;7.30;2.52;;;;;;;14.79;62.78;100805.15;1734215;82;21046;-71
2022/04/28 04:53:33;;;;;;;5.60;2.20;;;;;;;15.52;58.45;100808.03;1731505;82;20951;-71
2022/04/28 04:56:04;;;;;;;4.45;2.20;;;;;;;16.10;55.69;100807.95;1734708;82;21116;-71
2022/04/28 04:58:31;;;;;;;4.55;2.27;;;;;;;16.56;54.22;100810.95;1735038;82;21037;-72
2022/04/28 05:01:01;;;;;;;2.95;1.80;;;;;;;17.09;52.87;100802.92;1734627;82;21074;-70
2022/04/28 05:03:35;;;;;;;2.33;1.77;;;;;;;17.53;49.08;100799.64;1734116;82;21322;-71
2022/04/28 05:06:04;;;;;;;3.90;1.92;;;;;;;18.02;45.86;100796.44;1734242;82;20978;-73
2022/04/28 05:08:40;;;;;;;4.72;2.30;;;;;;;18.55;42.39;100803.58;1734916;82;21188;-73
2022/04/28 05:11:11;;;;;;;3.65;2.30;;;;;;;19.05;41.25;100798.84;1746143;81;20990;-72
2022/04/28 05:13:46;;;;;;;5.37;2.92;;;;;;;19.56;38.34;100796.50;1746903;82;21869;-71
2022/04/28 05:16:14;;;;;;;4.92;2.27;;;;;;;19.72;37.14;100799.08;1748813;82;21073;-70
2022/04/28 05:18:44;;;;;;;3.98;2.37;;;;;;;19.99;36.14;100798.22;1747953;82;21053;-70
2022/04/28 05:21:22;;;;;;;3.02;2.02;;;;;;;20.25;35.50;100805.38;1746379;82;21011;-70
2022/04/28 05:24:08;;;;;;;2.70;2.10;;;;;;;20.42;35.22;100799.37;1748434;82;21092;-70
2022/04/28 05:26:44;;;;;;;3.40;2.15;;;;;;;20.69;34.68;100804.22;1748203;82;21140;-71
2022/04/28 05:29:31;;;;;;;3.83;2.20;;;;;;;20.84;33.94;100802.29;1748240;82;21030;-72
2022/04/28 05:32:17;;;;;;;4.78;2.40;;;;;;;21.09;33.21;100802.77;1748524;82;21033;-72
2022/04/28 05:35:01;;;;;;;3.10;1.80;;;;;;;21.44;32.82;100801.26;1664140;85;21016;-73
2022/04/28 05:37:28;;;;;;;4.42;1.90;;;;;;;21.77;32.02;100791.27;1720678;82;21036;-72
2022/04/28 05:39:54;;;;;;;6.90;1.87;;;;;;;21.87;30.29;100800.33;1748606;82;21084;-72
2022/04/28 05:42:21;;;;;;;6.25;1.80;;;;;;;21.71;31.19;100794.39;1748410;82;20994;-71
2022/04/28 05:47:34;;;;;;;4.30;1.70;;;;;;;22.00;30.95;100801.14;1718527;82;20990;-71
2022/04/28 05:50:00;;;;;;;4.37;1.60;;;;;;;22.38;30.55;100796.57;1748463;82;21143;-72
2022/04/28 05:52:29;;;;;;;2.47;1.52;;;;;;;22.39;29.65;100798.30;1713621;82;21054;-72
2022/04/28 05:54:57;;;;;;;2.55;1.40;;;;;;;22.37;29.96;100801.09;1748375;82;21029;-70
2022/04/28 05:57:24;;;;;;;2.58;1.85;;;;;;;22.52;29.27;100794.17;1748293;82;21062;-71
2022/04/28 05:59:52;;;;;;;3.92;1.70;;;;;;;22.82;29.08;100794.52;1748160;82;21798;-71
2022/04/28 06:02:30;;;;;;;1.45;0.88;;;;;;;23.04;28.56;100799.56;1727215;82;21022;-70
2022/04/28 06:04:57;;;;;;;1.72;0.78;;;;;;;23.37;24.54;100800.53;1748205;82;21212;-71
2022/04/28 06:07:24;;;;;;;1.27;0.70;;;;;;;23.48;22.24;100799.19;1748256;82;21065;-70
2022/04/28 06:09:53;;;;;;;1.37;0.80;;;;;;;23.53;22.09;100803.69;1748387;81;21085;-72
2022/04/28 06:12:24;;;;;;;2.40;1.10;;;;;;;23.62;21.30;100807.48;1748054;82;21081;-70
2022/04/28 06:15:11;;;;;;;1.55;0.90;;;;;;;23.42;21.14;100809.08;1748272;82;21033;-71
2022/04/28 06:17:40;;;;;;;2.55;1.20;;;;;;;23.33;22.39;100809.81;1742008;82;21549;-71
2022/04/28 06:20:11;;;;;;;1.00;0.70;;;;;;;23.48;21.67;100817.16;1748176;82;21100;-69
2022/04/28 06:24:40;;;;;;;4.37;1.10;;;;;;;22.56;22.17;100813.95;1796934;79;23285;-71
2022/04/28 06:27:09;;;;;;;1.50;1.00;;;;;;;22.15;23.48;100817.05;1756490;80;20973;-72
2022/04/28 06:29:38;;;;;;;3.10;1.00;;;;;;;21.75;24.65;100814.16;1756445;81;20993;-70
2022/04/28 06:32:07;;;;;;;1.90;1.00;;;;;;;21.31;23.94;100832.08;1717773;83;21571;-73
2022/04/28 06:34:52;;;;;;;1.10;0.70;;;;;;;20.79;23.69;100835.70;1720355;83;21060;-72
2022/04/28 06:37:21;;;;;;;3.42;1.20;;;;;;;20.36;24.90;100847.47;1693631;83;21037;-71
2022/04/28 06:39:53;;;;;;;1.87;1.10;;;;;;;20.18;25.81;100838.84;1720387;83;20953;-71
2022/04/28 06:42:23;;;;;;;3.02;0.98;;;;;;;19.99;26.42;100836.53;1720559;83;21610;-72
2022/04/28 06:45:12;;;;;;;2.87;1.10;;;;;;;19.73;25.67;100852.89;1720605;83;21069;-74
2022/04/28 06:47:41;;;;;;;1.95;1.00;;;;;;;19.42;26.07;100848.61;1662861;85;21025;-73
2022/04/28 06:50:28;;;;;;;4.05;1.15;;;;;;;19.10;25.73;100850.61;1679305;85;21592;-71
2022/04/28 06:53:16;;;;;;;2.47;1.20;;;;;;;18.86;25.95;100849.79;1679654;85;21113;-72
2022/04/28 06:55:47;;;;;;;4.60;0.98;;;;;;;18.64;26.20;100848.86;1679341;85;21067;-71
2022/04/28 06:58:15;;;;;;;3.92;1.30;;;;;;;18.49;26.97;100851.94;1679264;85;21028;-71
2022/04/28 07:00:44;;;;;;;1.95;1.27;;;;;;;18.36;25.78;100858.97;1679259;85;21116;-73
2022/04/28 07:03:13;;;;;;;2.37;1.17;;;;;;;18.26;26.94;100857.76;1679395;85;21465;-72
2022/04/28 07:05:42;;;;;;;2.40;1.20;;;;;;;18.10;27.09;100855.96;1679389;85;21063;-73
2022/04/28 07:08:11;;;;;;;5.08;1.25;;;;;;;18.02;27.81;100860.41;1679517;85;21115;-70
2022/04/28 07:10:43;;;;;;;1.90;1.27;;;;;;;18.09;28.91;100860.92;1678831;85;21561;-73
2022/04/28 07:13:12;;;;;;;5.85;1.00;;;;;;;18.17;29.02;100863.98;1679636;85;21034;-73
2022/04/28 07:16:00;;;;;;;4.33;1.30;;;;;;;18.09;27.54;100864.91;1679371;85;21548;-71
2022/04/28 07:18:48;;;;;;;2.17;1.10;;;;;;;17.82;27.82;100862.84;1679302;85;21079;-71
2022/04/28 07:21:18;;;;;;;2.05;1.35;;;;;;;17.61;28.45;100864.86;1651880;85;21096;-71
2022/04/28 07:23:45;;;;;;;2.67;1.40;;;;;;;17.47;29.09;100874.55;1643387;86;21546;-72
2022/04/28 07:26:13;;;;;;;2.77;1.30;;;;;;;17.40;29.73;100871.36;1660684;86;22213;-71
2022/04/28 07:28:40;;;;;;;2.45;1.32;;;;;;;17.46;29.36;100876.81;1660550;86;21071;-72
2022/04/28 07:31:16;;;;;;;1.90;1.30;;;;;;;17.44;29.23;100872.03;1580064;87;21131;-72
2022/04/28 07:34:10;;;;;;;5.53;1.50;;;;;;;17.34;29.46;100885.84;1657776;86;21247;-73
2022/04/28 07:36:55;;;;;;;3.72;1.87;;;;;;;17.13;30.13;100889.64;1657084;86;21020;-73
2022/04/28 07:39:35;;;;;;;2.85;1.62;;;;;;;16.93;30.62;100883.57;1577413;90;21154;-71
2022/04/28 07:42:16;;;;;;;;;;;;;;;16.76;31.17;100886.19;1659237;86;21099;-72
2022/04/28 07:44:45;;;;;;;1.75;1.10;;;;;;;16.57;31.01;100886.26;1657201;86;20218;-70
2022/04/28 07:47:17;;;;;;;2.30;1.40;;;;;;;16.47;30.55;100884.53;1638514;86;21137;-72
2022/04/28 07:49:46;;;;;;;4.85;1.47;;;;;;;16.36;31.05;100892.17;1632508;86;21076;-71
2022/04/28 07:52:14;;;;;;;3.70;1.55;;;;;;;16.32;31.15;100887.94;1638441;86;21406;-70
2022/04/28 07:54:45;;;;;;;2.15;1.37;;;;;;;16.26;31.50;100896.20;1657043;85;21095;-72
2022/04/28 07:57:18;;;;;;;3.00;1.10;;;;;;;16.16;31.24;100891.80;1656960;86;21250;-72
2022/04/28 07:59:46;;;;;;;3.08;1.60;;;;;;;16.04;31.61;100896.38;1626074;86;21097;-70
2022/04/28 08:02:16;;;;;;;2.87;1.45;;;;;;;15.94;31.66;100898.59;1657095;86;21079;-71
2022/04/28 08:04:47;;;;;;;2.62;1.35;;;;;;;15.85;31.58;100899.02;1639012;86;21060;-71
2022/04/28 08:07:15;;;;;;;4.92;1.27;;;;;;;15.77;32.02;100895.88;1657119;86;21749;-70
2022/04/28 08:09:48;;;;;;;3.52;1.55;;;;;;;15.77;32.74;100893.22;1657476;85;21075;-73
2022/04/28 08:12:19;;;;;;;31.15;3.95;;;;;;;15.93;33.04;100895.55;1656972;86;21086;-69
2022/04/28 08:14:49;;;;;;;8.50;1.45;;;;;;;16.23;32.83;100889.71;1657501;86;21076;-71
2022/04/28 08:17:18;;;;;;;3.37;1.32;;;;;;;16.45;33.06;100891.72;1640361;86;21107;-71
2022/04/28 08:19:48;;;;;;;3.80;1.50;;;;;;;16.64;31.67;100900.11;1657475;85;21119;-72
2022/04/28 08:22:17;;;;;;;5.65;1.62;;;;;;;16.61;31.36;100889.61;1657453;85;21074;-70
2022/04/28 08:24:45;;;;;;;2.83;1.70;;;;;;;16.50;31.87;100888.36;1659111;85;21520;-72
2022/04/28 08:27:13;;;;;;;8.53;1.70;;;;;;;16.56;32.23;100887.17;1659268;86;21107;-70
2022/04/28 08:29:44;;;;;;;4.35;1.50;;;;;;;16.72;32.11;100895.25;1659627;86;21559;-70
2022/04/28 08:32:15;;;;;;;3.27;1.45;;;;;;;16.89;31.92;100887.32;1659212;85;21609;-70
2022/04/28 08:34:43;;;;;;;2.58;1.40;;;;;;;17.02;31.90;100886.67;1659221;86;21116;-70
2022/04/28 08:37:12;;;;;;;3.55;1.25;;;;;;;17.18;31.67;100890.25;1658993;86;21109;-71
2022/04/28 08:39:41;;;;;;;3.80;1.32;;;;;;;17.23;31.44;100890.91;1659476;86;21585;-70
2022/04/28 08:42:12;;;;;;;4.00;1.60;;;;;;;17.29;31.37;100887.89;1659974;86;21075;-71
2022/04/28 08:44:58;;;;;;;2.37;1.27;;;;;;;17.38;31.60;100886.07;1635211;86;21197;-71
2022/04/28 08:47:30;;;;;;;2.62;1.57;;;;;;;17.42;31.33;100883.27;1645278;85;21571;-71
2022/04/28 08:50:09;;;;;;;3.98;1.40;;;;;;;17.46;31.26;100883.47;1647071;86;21020;-72
2022/04/28 08:52:50;;;;;;;3.20;1.47;;;;;;;17.54;30.43;100881.27;1703063;83;21033;-72
2022/04/28 08:55:20;;;;;;;6.55;1.52;;;;;;;17.64;30.10;100875.81;1701397;84;21081;-71
2022/04/28 08:57:48;;;;;;;3.77;1.30;;;;;;;17.73;30.10;100871.31;1702791;84;21061;-71
2022/04/28 09:00:20;;;;;;;1.37;1.12;;;;;;;17.87;30.03;100871.06;1699589;84;21025;-72
2022/04/28 09:02:53;;;;;;;1.80;1.15;;;;;;;18.02;29.98;100874.20;1671306;85;21115;-72
2022/04/28 09:05:28;;;;;;;2.67;1.30;;;;;;;18.15;30.13;100871.24;1672221;85;21104;-71
2022/04/28 09:08:18;;;;;;;2.40;1.42;;;;;;;18.28;29.61;100865.20;1658243;85;21132;-71
2022/04/28 09:10:50;;;;;;;3.08;1.70;;;;;;;18.22;29.31;100868.61;1630481;85;21052;-70
2022/04/28 09:14:18;;;;;;;2.30;1.42;;;;;;;18.20;29.95;100866.50;1670437;85;21072;-72
2022/04/28 09:16:02;;;;;;;2.60;1.30;;;;;;;18.33;29.78;100865.78;1650515;85;21172;-71
2022/04/28 09:18:32;;;;;;;2.52;1.42;;;;;;;18.48;29.78;100862.72;1674601;84;21037;-71
2022/04/28 09:21:04;;;;;;;3.60;1.40;;;;;;;18.61;30.50;100861.91;1674592;85;21553;-72
2022/04/28 09:23:36;;;;;;;2.47;1.10;;;;;;;18.69;28.45;100863.27;1658375;84;21599;-71
2022/04/28 09:26:05;;;;;;;2.25;1.25;;;;;;;18.56;27.86;100861.30;1689775;84;21064;-71
2022/04/28 09:28:32;;;;;;;2.72;1.30;;;;;;;18.41;29.07;100852.88;1689728;84;21159;-72
2022/04/28 09:31:01;;;;;;;2.45;1.30;;;;;;;18.32;29.86;100857.41;1694167;83;21077;-71
2022/04/28 09:33:41;;;;;;;3.92;1.50;;;;;;;18.35;30.25;100859.89;1717323;83;21072;-72
2022/04/28 09:36:23;;;;;;;3.47;1.40;;;;;;;18.32;30.61;100860.94;1714633;83;21000;-71
2022/04/28 09:38:55;;;;;;;2.62;1.40;;;;;;;18.30;30.00;100863.30;1718411;83;21541;-72
2022/04/28 09:44:14;;;;;;;4.00;1.57;;;;;;;18.41;31.03;100860.88;1717992;83;21553;-71
2022/04/28 09:46:45;;;;;;;2.12;1.40;;;;;;;18.52;31.53;100858.90;1717811;83;21048;-71
2022/04/28 09:49:17;;;;;;;4.05;1.32;;;;;;;18.74;31.54;100855.84;1718662;83;21261;-71
2022/04/28 09:51:46;;;;;;;3.77;1.65;;;;;;;19.00;31.15;100857.84;1714829;83;21047;-71
2022/04/28 09:54:25;;;;;;;2.27;1.40;;;;;;;19.31;30.02;100853.28;1718673;83;21084;-71
2022/04/28 09:56:56;;;;;;;7.60;1.55;;;;;;;19.36;30.65;100847.17;1717431;83;21079;-71
2022/04/28 09:59:27;;;;;;;3.37;1.40;;;;;;;19.41;31.20;100849.06;1718691;83;21047;-72
2022/04/28 10:01:59;;;;;;;2.15;1.20;;;;;;;19.47;30.14;100846.02;1718657;83;21060;-71
2022/04/28 10:04:31;;;;;;;2.15;1.30;;;;;;;19.49;29.07;100848.13;1716212;83;21084;-74
2022/04/28 10:07:15;;;;;;;2.55;1.05;;;;;;;19.26;30.08;100846.04;1717654;83;21149;-72
2022/04/28 10:09:51;;;;;;;1.90;1.30;;;;;;;19.26;28.46;100847.37;1718573;83;21320;-71
2022/04/28 10:12:22;;;;;;;4.35;1.30;;;;;;;19.68;28.69;100848.30;1718559;83;21083;-72
2022/04/28 10:14:56;;;;;;;1.55;1.10;;;;;;;20.32;27.84;100847.30;1700835;83;21469;-72
2022/04/28 10:17:31;;;;;;;2.33;1.02;;;;;;;21.09;25.78;100854.99;1718407;83;21108;-72
2022/04/28 10:20:08;;;;;;;1.98;0.82;;;;;;;21.67;25.14;100841.14;1692474;83;21009;-71
2022/04/28 10:22:37;;;;;;;2.58;1.10;;;;;;;22.18;23.22;100838.30;1717403;83;21036;-71
2022/04/28 10:33:53;;;;;;;3.35;1.00;;;;;;;23.06;21.70;100835.22;1720802;83;21168;-73
2022/04/28 10:36:21;;;;;;;1.47;0.68;;;;;;;23.25;21.15;100830.09;1720980;83;21112;-72
2022/04/28 10:39:11;;;;;;;2.40;0.88;;;;;;;22.93;21.09;100829.91;1716228;83;21051;-73
2022/04/28 10:41:37;;;;;;;1.90;0.88;;;;;;;22.85;22.28;100822.95;1720767;83;21039;-72
2022/04/28 10:44:18;;;;;;;2.25;0.88;;;;;;;23.20;22.36;100809.45;1692627;83;21543;-72
2022/04/28 10:47:01;;;;;;;1.75;0.93;;;;;;;23.62;21.54;100806.98;1691885;83;21215;-72
2022/04/28 10:49:40;;;;;;;1.50;0.90;;;;;;;23.88;20.81;100816.16;1720590;83;21056;-70
2022/04/28 10:52:25;;;;;;;2.95;0.78;;;;;;;24.07;19.29;100814.98;1720962;83;21512;-71
2022/04/28 10:54:56;;;;;;;3.55;0.88;;;;;;;24.12;20.17;100812.41;1720507;83;21516;-72
2022/04/28 10:57:37;;;;;;;2.98;0.80;;;;;;;24.05;18.78;100807.53;1720671;83;21056;-71
2022/04/28 11:00:05;;;;;;;4.13;0.97;;;;;;;23.62;18.83;100805.63;1692485;83;21420;-71
2022/04/28 11:02:41;;;;;;;4.37;0.88;;;;;;;23.35;21.25;100805.17;1720949;83;21012;-72
2022/04/28 11:05:37;;;;;;;1.80;0.90;;;;;;;23.46;20.91;100801.14;1720898;83;21324;-71
2022/04/28 11:08:09;;;;;;;3.35;0.90;;;;;;;23.64;20.33;100806.37;1684651;83;21056;-72
2022/04/28 11:11:04;;;;;;;2.77;0.72;;;;;;;23.88;20.10;100794.64;1693904;83;21083;-70
2022/04/28 11:13:33;;;;;;;3.35;0.90;;;;;;;23.99;19.57;100794.58;1721253;83;21079;-71
2022/04/28 11:16:02;;;;;;;2.27;1.07;;;;;;;23.87;18.82;100799.64;1720945;83;21032;-72
2022/04/28 11:18:33;;;;;;;2.77;0.95;;;;;;;23.86;20.02;100799.29;1721275;83;21522;-72
2022/04/28 11:21:03;;;;;;;2.98;0.80;;;;;;;24.10;20.29;100800.42;1721039;83;20997;-73
2022/04/28 11:23:35;;;;;;;2.15;0.80;;;;;;;24.25;18.74;100778.11;1720983;83;21159;-71
2022/04/28 11:26:03;;;;;;;1.65;1.00;;;;;;;23.87;19.87;100798.30;1703874;83;21146;-73
2022/04/28 11:28:34;;;;;;;4.53;1.30;;;;;;;23.77;19.13;100800.05;1702686;84;21029;-72
2022/04/28 11:31:13;;;;;;;4.83;1.57;;;;;;;23.68;18.78;100805.64;1702848;83;21048;-72
2022/04/28 11:33:43;;;;;;;4.05;1.55;;;;;;;23.73;20.00;100802.58;1702712;83;21937;-71
2022/04/28 11:36:28;;;;;;;2.72;1.55;;;;;;;23.57;19.93;100802.47;1683159;84;21057;-73
2022/04/28 11:39:02;;;;;;;3.95;1.47;;;;;;;23.27;19.53;100795.55;1702836;84;21101;-73
2022/04/28 11:41:35;;;;;;;4.00;1.65;;;;;;;22.97;20.67;100792.44;1702968;84;21127;-72
2022/04/28 11:44:10;;;;;;;5.87;1.82;;;;;;;22.85;20.72;100788.53;1702394;84;21041;-72
2022/04/28 11:46:49;;;;;;;5.25;1.92;;;;;;;22.83;21.33;100789.49;1702761;83;21066;-71
2022/04/28 11:49:23;;;;;;;2.62;1.17;;;;;;;22.97;21.21;100774.13;1702938;84;21052;-72
2022/04/28 11:51:51;;;;;;;3.40;2.02;;;;;;;22.81;21.78;100773.98;1683387;84;21213;-71
2022/04/28 11:54:26;;;;;;;4.95;2.17;;;;;;;22.84;21.30;100766.17;1706229;83;21049;-71
2022/04/28 11:57:11;;;;;;;6.42;2.12;;;;;;;22.87;21.75;100757.02;1706136;84;21069;-73
2022/04/28 11:59:40;;;;;;;3.10;1.75;;;;;;;22.76;21.67;100774.84;1702829;84;21033;-70
2022/04/28 12:02:33;;;;;;;5.17;2.20;;;;;;;22.72;21.36;100762.63;1703106;84;21112;-70
2022/04/28 12:05:09;;;;;;;6.90;2.20;;;;;;;22.33;22.20;100772.77;1702647;84;21212;-72
2022/04/28 12:07:36;;;;;;;5.37;1.80;;;;;;;22.26;22.37;100762.14;1702118;83;21053;-72
2022/04/28 12:15:27;;;;;;;4.53;1.70;;;;;;;22.17;23.95;100756.10;1702721;84;21065;-72
2022/04/28 12:20:57;;;;;;;3.08;1.65;;;;;;;21.80;22.68;100754.84;1702723;84;21171;-71
2022/04/28 12:23:42;;;;;;;1.57;1.10;;;;;;;21.50;22.30;100757.47;1702962;84;21109;-70
2022/04/28 12:26:11;;;;;;;1.90;0.90;;;;;;;21.28;23.81;100753.25;1723016;83;21059;-71
2022/04/28 12:28:42;;;;;;;2.90;1.20;;;;;;;21.30;24.28;100752.66;1725999;83;21016;-71